Time;durP1;ratioP1;P1;durP2;ratioP2;P2;SDS_P1;SDS_P2;PMS_P1;PMS_P2;Temp;Humidity;BMP_temperature;BMP_pressure;BME280_temperature;BME280_humidity;BME280_pressure;Samples;Min_cycle;Max_cycle;Signal;HPM_P1;HPM_P2
2022/10/03 00:02:41;;;;;;;41.55;4.18;;;12.20;99.90;;;;;;6117192;23;20446;-83
2022/10/03 00:05:36;;;;;;;37.42;4.45;;;12.20;99.90;;;;;;6117093;23;20021;-85
2022/10/03 00:08:35;;;;;;;32.25;4.50;;;12.20;99.90;;;;;;6118241;23;20114;-85
2022/10/03 00:11:22;;;;;;;38.58;4.63;;;12.30;99.90;;;;;;6116289;23;20336;-85
2022/10/03 00:13:57;;;;;;;33.10;3.75;;;12.30;99.90;;;;;;6117488;23;20018;-85
2022/10/03 00:16:35;;;;;;;32.35;4.55;;;12.30;99.90;;;;;;6116622;23;20446;-83
2022/10/03 00:19:16;;;;;;;32.10;5.28;;;12.30;99.90;;;;;;6116856;22;20014;-85
2022/10/03 00:22:17;;;;;;;28.83;3.53;;;12.30;99.90;;;;;;6116564;23;20028;-86
2022/10/03 00:24:57;;;;;;;29.17;4.72;;;12.30;99.90;;;;;;6116734;23;20237;-84
2022/10/03 00:27:40;;;;;;;35.75;4.88;;;12.30;99.90;;;;;;6115784;23;20037;-85
2022/10/03 00:30:09;;;;;;;36.33;3.88;;;12.40;99.90;;;;;;6115138;23;20330;-84
2022/10/03 00:32:45;;;;;;;45.55;4.70;;;12.30;99.90;;;;;;6118124;23;20044;-84
2022/10/03 00:35:11;;;;;;;26.70;3.75;;;12.40;99.90;;;;;;6116291;23;20040;-86
2022/10/03 00:37:43;;;;;;;30.83;3.70;;;12.40;99.90;;;;;;6116768;23;20419;-85
2022/10/03 00:40:26;;;;;;;45.40;5.75;;;12.40;99.90;;;;;;6116310;23;20030;-84
2022/10/03 00:43:21;;;;;;;31.10;4.75;;;12.40;99.90;;;;;;6117035;23;20002;-83
2022/10/03 00:46:18;;;;;;;29.13;4.50;;;12.40;99.90;;;;;;6117856;23;20018;-84
2022/10/03 00:49:05;;;;;;;25.52;3.42;;;12.50;99.90;;;;;;6118792;23;20010;-84
2022/10/03 00:51:45;;;;;;;52.38;5.72;;;12.40;99.90;;;;;;6117321;23;20013;-83
2022/10/03 00:54:25;;;;;;;38.60;5.18;;;12.40;99.90;;;;;;6118531;23;20006;-86
2022/10/03 00:57:06;;;;;;;26.98;4.70;;;12.50;99.90;;;;;;6116590;23;20002;-84
2022/10/03 00:59:52;;;;;;;25.42;3.53;;;12.50;99.90;;;;;;6119219;23;20331;-84
2022/10/03 01:02:56;;;;;;;26.70;5.35;;;12.50;99.90;;;;;;6117647;23;20443;-85
2022/10/03 01:05:39;;;;;;;22.83;4.00;;;12.40;99.90;;;;;;6082735;23;20096;-85
2022/10/03 01:08:42;;;;;;;30.10;3.67;;;12.50;99.90;;;;;;6118963;23;20093;-86
2022/10/03 01:11:28;;;;;;;25.83;3.55;;;12.50;99.90;;;;;;6116880;23;20449;-84
2022/10/03 01:13:54;;;;;;;;;;;12.50;99.90;;;;;;6118382;23;20378;-86
2022/10/03 01:16:36;;;;;;;32.05;5.45;;;12.50;99.90;;;;;;6116618;23;19909;-83
2022/10/03 01:19:25;;;;;;;35.92;4.65;;;12.40;99.90;;;;;;6117183;22;20480;-83
2022/10/03 01:22:09;;;;;;;28.88;5.70;;;12.40;99.90;;;;;;6116451;23;20451;-84
2022/10/03 01:24:55;;;;;;;28.75;5.32;;;12.30;99.90;;;;;;6116827;23;20038;-84
2022/10/03 01:30:21;;;;;;;36.65;4.82;;;12.30;99.90;;;;;;6117525;23;20335;-83
2022/10/03 01:30:23;;;;;;;28.08;3.63;;;12.20;99.90;;;;;;6116156;23;20010;-84
2022/10/03 01:33:10;;;;;;;26.00;5.15;;;12.10;99.90;;;;;;6118435;23;20081;-85
2022/10/03 01:36:08;;;;;;;21.75;3.40;;;12.00;99.90;;;;;;6117475;23;20010;-84
2022/10/03 01:38:57;;;;;;;37.03;5.63;;;12.00;99.90;;;;;;6116633;23;20067;-87
2022/10/03 01:41:47;;;;;;;35.50;4.75;;;12.00;99.90;;;;;;6117752;23;20014;-83
2022/10/03 01:44:57;;;;;;;27.10;3.55;;;11.90;99.90;;;;;;6114179;23;20014;-84
2022/10/03 01:47:28;;;;;;;31.05;4.70;;;11.90;99.90;;;;;;6103993;23;20017;-83
2022/10/03 01:50:18;;;;;;;21.88;3.78;;;11.90;99.90;;;;;;6117058;23;20006;-84
2022/10/03 01:52:56;;;;;;;25.50;3.88;;;11.90;99.90;;;;;;6118376;23;20081;-85
2022/10/03 01:55:48;;;;;;;34.50;4.65;;;11.90;99.90;;;;;;6117633;23;20017;-84
2022/10/03 01:58:44;;;;;;;34.35;4.85;;;12.00;99.90;;;;;;6117695;23;20006;-83
2022/10/03 02:01:19;;;;;;;;;;;11.90;99.90;;;;;;6117237;23;20006;-84
2022/10/03 02:03:53;;;;;;;31.60;4.03;;;11.90;99.90;;;;;;6118010;23;20319;-84
2022/10/03 02:07:10;;;;;;;36.80;4.07;;;12.00;99.90;;;;;;6117149;23;20044;-85
2022/10/03 02:09:48;;;;;;;33.63;3.85;;;12.00;99.90;;;;;;6098578;23;20006;-85
2022/10/03 02:12:26;;;;;;;26.98;4.15;;;12.00;99.90;;;;;;6116462;23;20029;-85
2022/10/03 02:14:59;;;;;;;23.05;4.78;;;11.90;99.90;;;;;;6118518;23;20013;-85
2022/10/03 02:17:44;;;;;;;21.73;3.88;;;12.00;99.90;;;;;;6117977;23;20089;-84
2022/10/03 02:20:39;;;;;;;20.70;3.15;;;12.00;99.90;;;;;;6115867;23;20545;-84
2022/10/03 02:23:25;;;;;;;31.42;3.97;;;12.00;99.90;;;;;;6117573;23;20014;-84
2022/10/03 02:26:08;;;;;;;32.42;4.13;;;12.00;99.90;;;;;;6117075;23;20018;-82
2022/10/03 02:29:04;;;;;;;21.77;3.30;;;12.10;99.90;;;;;;6117936;23;20378;-84
2022/10/03 02:32:06;;;;;;;22.85;3.67;;;12.10;99.90;;;;;;6115780;23;20037;-87
2022/10/03 02:34:59;;;;;;;27.98;3.53;;;12.10;99.90;;;;;;6118256;23;20013;-85
2022/10/03 02:38:04;;;;;;;25.98;4.78;;;12.10;99.90;;;;;;6117095;23;20502;-83
2022/10/03 02:41:07;;;;;;;19.63;2.90;;;12.00;99.90;;;;;;6117220;23;20006;-83
2022/10/03 02:44:14;;;;;;;29.15;3.60;;;11.90;99.90;;;;;;6117538;23;20080;-84
2022/10/03 02:46:58;;;;;;;21.42;2.92;;;11.80;99.90;;;;;;6116729;23;20021;-84
2022/10/03 02:49:39;;;;;;;22.08;3.33;;;11.80;99.90;;;;;;6118228;23;20006;-87
2022/10/03 02:52:43;;;;;;;27.30;3.30;;;11.80;99.90;;;;;;6115941;23;20386;-84
2022/10/03 02:55:30;;;;;;;32.47;5.85;;;11.80;99.90;;;;;;6115330;23;20557;-84
2022/10/03 02:58:17;;;;;;;35.97;4.35;;;11.80;99.90;;;;;;6117004;23;20002;-84
2022/10/03 03:01:20;;;;;;;22.02;3.33;;;11.80;99.90;;;;;;6115898;23;20079;-85
2022/10/03 03:04:19;;;;;;;37.58;3.72;;;11.70;99.90;;;;;;6118068;23;20025;-84
2022/10/03 03:07:25;;;;;;;23.98;3.42;;;11.70;99.90;;;;;;6117073;23;20454;-85
2022/10/03 03:10:28;;;;;;;27.63;3.45;;;11.60;99.90;;;;;;6104348;23;20009;-84
2022/10/03 03:12:54;;;;;;;27.20;3.38;;;11.60;99.90;;;;;;6117237;23;20093;-84
2022/10/03 03:15:56;;;;;;;32.17;3.40;;;11.60;99.90;;;;;;6116685;23;20044;-84
2022/10/03 03:18:41;;;;;;;33.60;3.58;;;11.60;99.90;;;;;;6116280;22;20029;-85
2022/10/03 03:21:33;;;;;;;21.58;3.33;;;11.60;99.90;;;;;;6116607;23;20176;-84
2022/10/03 03:24:16;;;;;;;14.52;2.60;;;11.60;99.90;;;;;;6117448;23;20010;-84
2022/10/03 03:27:03;;;;;;;24.90;2.92;;;11.60;99.90;;;;;;6116765;23;20013;-84
2022/10/03 03:29:51;;;;;;;18.17;2.55;;;11.60;99.90;;;;;;6118195;23;20006;-84
2022/10/03 03:32:35;;;;;;;24.65;2.92;;;11.60;99.90;;;;;;6116219;23;20010;-85
2022/10/03 03:35:20;;;;;;;20.10;2.72;;;11.60;99.90;;;;;;6117699;23;20360;-85
2022/10/03 03:38:06;;;;;;;24.10;3.20;;;11.70;99.90;;;;;;6117055;23;20428;-84
2022/10/03 03:40:45;;;;;;;16.45;2.88;;;11.70;99.90;;;;;;6116606;23;20488;-84
2022/10/03 03:43:23;;;;;;;25.52;3.40;;;11.70;99.90;;;;;;6116883;23;20673;-85
2022/10/03 03:45:49;;;;;;;32.05;3.47;;;11.70;99.90;;;;;;6115839;23;20021;-84
2022/10/03 03:48:26;;;;;;;24.85;2.92;;;11.70;99.90;;;;;;6117355;23;20010;-83
2022/10/03 03:51:06;;;;;;;16.25;3.28;;;11.70;99.90;;;;;;6116722;23;20397;-84
2022/10/03 03:53:50;;;;;;;19.02;3.03;;;11.70;99.90;;;;;;6118115;23;20002;-82
2022/10/03 03:56:18;;;;;;;24.58;3.22;;;11.70;99.90;;;;;;6116622;23;20017;-84
2022/10/03 03:59:10;;;;;;;21.92;3.55;;;11.70;99.90;;;;;;6117841;23;20005;-84
2022/10/03 04:02:05;;;;;;;30.80;3.53;;;11.70;99.90;;;;;;6116699;23;20002;-84
2022/10/03 04:05:08;;;;;;;34.40;4.90;;;11.70;99.90;;;;;;6118212;23;20332;-85
2022/10/03 04:08:05;;;;;;;26.40;2.85;;;11.70;99.90;;;;;;6117110;23;20014;-83
2022/10/03 04:11:12;;;;;;;29.75;3.78;;;11.70;99.90;;;;;;6116392;23;20002;-83
2022/10/03 04:13:46;;;;;;;20.05;3.05;;;11.70;99.90;;;;;;6045932;23;20297;-84
2022/10/03 04:19:56;;;;;;;29.10;3.75;;;11.70;99.90;;;;;;6115782;22;20036;-84
2022/10/03 04:22:30;;;;;;;31.15;4.22;;;11.70;99.90;;;;;;6117774;23;20006;-83
2022/10/03 04:25:30;;;;;;;28.48;4.90;;;11.70;99.90;;;;;;6116001;23;20010;-84
2022/10/03 04:28:07;;;;;;;32.58;3.92;;;11.70;99.90;;;;;;6102882;23;20003;-82
2022/10/03 04:30:56;;;;;;;12.75;3.20;;;11.70;99.90;;;;;;6117712;23;20371;-84
2022/10/03 04:33:34;;;;;;;21.40;3.05;;;11.70;99.90;;;;;;6118320;23;20443;-83
2022/10/03 04:36:24;;;;;;;19.02;3.50;;;11.80;99.90;;;;;;6117659;23;20006;-87
2022/10/03 04:39:06;;;;;;;22.05;3.25;;;11.80;99.90;;;;;;6118749;23;20006;-83
2022/10/03 04:41:48;;;;;;;22.77;3.00;;;11.80;99.90;;;;;;6117356;23;20017;-84
2022/10/03 04:44:52;;;;;;;15.82;2.80;;;11.80;99.90;;;;;;6118264;23;20006;-84
2022/10/03 04:48:03;;;;;;;26.75;3.45;;;11.80;99.90;;;;;;6026670;23;20476;-84
2022/10/03 04:50:41;;;;;;;36.47;4.05;;;11.80;99.90;;;;;;6016455;23;20015;-83
2022/10/03 04:53:40;;;;;;;19.33;3.05;;;11.80;99.90;;;;;;6105333;23;20006;-84
2022/10/03 04:56:21;;;;;;;35.30;4.40;;;11.80;99.90;;;;;;6117683;23;20006;-84
2022/10/03 04:58:49;;;;;;;30.80;4.85;;;11.80;99.90;;;;;;6117887;23;20010;-84
2022/10/03 05:01:37;;;;;;;20.55;3.80;;;11.80;99.90;;;;;;6117303;23;20002;-85
2022/10/03 05:04:44;;;;;;;16.20;3.35;;;11.80;99.90;;;;;;6118583;23;20014;-84
2022/10/03 05:07:12;;;;;;;32.00;4.38;;;11.80;99.90;;;;;;6116820;23;20382;-83
2022/10/03 05:10:19;;;;;;;30.80;4.18;;;11.80;99.90;;;;;;6117460;23;20426;-83
2022/10/03 05:12:54;;;;;;;28.35;4.03;;;11.70;99.90;;;;;;6116939;23;20006;-84
2022/10/03 05:15:53;;;;;;;25.92;4.50;;;11.80;99.90;;;;;;6117035;23;20288;-84
2022/10/03 05:18:30;;;;;;;36.30;3.92;;;11.80;99.90;;;;;;6112915;22;20029;-83
2022/10/03 05:21:20;;;;;;;30.20;3.20;;;11.80;99.90;;;;;;6117071;23;20085;-86
2022/10/03 05:24:02;;;;;;;31.08;4.05;;;11.80;99.90;;;;;;6117207;23;20386;-87
2022/10/03 05:26:51;;;;;;;40.03;4.50;;;11.80;99.90;;;;;;6115681;23;20085;-84
2022/10/03 05:29:39;;;;;;;32.20;4.82;;;11.80;99.90;;;;;;6116490;23;20006;-84
2022/10/03 05:32:39;;;;;;;33.20;3.67;;;11.80;99.90;;;;;;6114998;23;20029;-85
2022/10/03 05:35:37;;;;;;;31.70;5.13;;;11.90;99.90;;;;;;6118016;23;20313;-84
2022/10/03 05:38:14;;;;;;;22.45;3.53;;;11.80;99.90;;;;;;6118827;23;20402;-84
2022/10/03 05:40:49;;;;;;;22.30;4.13;;;11.80;99.90;;;;;;6118066;23;20098;-84
2022/10/03 05:43:46;;;;;;;24.42;3.53;;;11.80;99.90;;;;;;6118957;23;20002;-83
2022/10/03 05:46:31;;;;;;;29.27;4.63;;;11.80;99.90;;;;;;6113475;23;20018;-85
2022/10/03 05:49:07;;;;;;;25.60;3.55;;;11.80;99.90;;;;;;6115168;23;20547;-85
2022/10/03 05:51:55;;;;;;;29.33;4.65;;;11.80;99.90;;;;;;6113680;23;20009;-86
2022/10/03 05:54:44;;;;;;;20.65;3.40;;;11.80;99.90;;;;;;6117201;23;20006;-85
2022/10/03 05:57:47;;;;;;;22.20;3.50;;;11.80;99.90;;;;;;6117215;23;20033;-86
2022/10/03 06:00:49;;;;;;;27.58;3.58;;;11.80;99.90;;;;;;6119115;23;20366;-86
2022/10/03 06:04:12;;;;;;;26.38;3.88;;;11.80;99.90;;;;;;6117962;23;20009;-85
2022/10/03 06:06:56;;;;;;;26.33;3.05;;;11.80;99.90;;;;;;6027738;23;20024;-84
2022/10/03 06:10:01;;;;;;;25.83;3.75;;;11.80;99.90;;;;;;6028684;23;20003;-85
2022/10/03 06:12:58;;;;;;;28.77;3.40;;;11.80;99.90;;;;;;6105248;23;20010;-84
2022/10/03 06:15:41;;;;;;;22.25;2.95;;;11.80;99.90;;;;;;6118611;23;20010;-85
2022/10/03 06:18:10;;;;;;;22.67;3.85;;;11.80;99.90;;;;;;6117820;23;20361;-85
2022/10/03 06:21:00;;;;;;;17.33;3.13;;;11.80;99.90;;;;;;6117907;23;20013;-84
2022/10/03 06:23:44;;;;;;;34.85;5.03;;;11.80;99.90;;;;;;6118994;23;20051;-82
2022/10/03 06:26:15;;;;;;;28.30;3.60;;;11.80;99.90;;;;;;6118054;23;20378;-85
2022/10/03 06:29:08;;;;;;;27.10;3.38;;;11.80;99.90;;;;;;6118066;23;20013;-84
2022/10/03 06:32:08;;;;;;;26.48;3.92;;;11.80;99.90;;;;;;6118591;23;20006;-85
2022/10/03 06:34:59;;;;;;;11.98;2.42;;;11.90;99.90;;;;;;6119125;23;20030;-84
2022/10/03 06:37:59;;;;;;;19.58;2.90;;;11.90;99.90;;;;;;6106971;23;20006;-85
2022/10/03 06:40:47;;;;;;;15.70;3.65;;;11.80;99.90;;;;;;6119172;23;20028;-85
2022/10/03 06:43:57;;;;;;;29.35;3.80;;;11.80;99.90;;;;;;6116658;23;20501;-85
2022/10/03 06:46:44;;;;;;;13.30;2.70;;;11.80;99.90;;;;;;6028096;23;20015;-83
2022/10/03 06:49:35;;;;;;;16.30;2.70;;;11.90;99.90;;;;;;6028588;23;20018;-85
2022/10/03 06:52:16;;;;;;;19.02;3.03;;;11.90;99.90;;;;;;6097861;23;20006;-84
2022/10/03 06:54:51;;;;;;;13.68;2.38;;;11.90;99.90;;;;;;6118622;23;20006;-85
2022/10/03 06:57:36;;;;;;;38.13;4.32;;;11.90;99.90;;;;;;6117515;23;20002;-85
2022/10/03 07:00:28;;;;;;;15.88;2.65;;;12.00;99.90;;;;;;6118145;23;20006;-85
2022/10/03 07:03:12;;;;;;;15.10;3.95;;;12.10;99.90;;;;;;6117522;23;20006;-84
2022/10/03 07:06:12;;;;;;;18.15;2.13;;;12.10;99.90;;;;;;6093162;23;20061;-84
2022/10/03 07:08:57;;;;;;;16.05;2.72;;;12.10;99.90;;;;;;6117927;23;20013;-84
2022/10/03 07:11:42;;;;;;;15.90;2.73;;;12.10;99.90;;;;;;6118005;23;20008;-85
2022/10/03 07:14:23;;;;;;;14.60;2.87;;;12.20;99.90;;;;;;6117412;23;19998;-85
2022/10/03 07:17:04;;;;;;;21.45;3.97;;;12.20;99.90;;;;;;6117773;23;20591;-84
2022/10/03 07:19:35;;;;;;;19.15;3.80;;;12.20;99.90;;;;;;6118240;23;20026;-85
2022/10/03 07:22:25;;;;;;;20.17;2.55;;;12.10;99.90;;;;;;6117638;23;20006;-85
2022/10/03 07:25:31;;;;;;;16.15;2.15;;;12.00;99.90;;;;;;6117764;23;20021;-84
2022/10/03 07:28:37;;;;;;;23.17;4.22;;;12.00;99.90;;;;;;6117882;23;20335;-85
2022/10/03 07:31:41;;;;;;;30.52;2.97;;;11.90;99.90;;;;;;6117242;23;20349;-85
2022/10/03 07:34:18;;;;;;;17.45;2.53;;;11.90;99.90;;;;;;6118446;23;20009;-85
2022/10/03 07:40:21;;;;;;;18.90;2.47;;;11.80;99.90;;;;;;6118108;23;20024;-84
2022/10/03 07:43:25;;;;;;;20.85;2.92;;;11.90;99.90;;;;;;6117063;23;20300;-85
2022/10/03 07:46:29;;;;;;;14.02;2.72;;;12.00;99.90;;;;;;6118935;23;20014;-85
2022/10/03 07:49:20;;;;;;;12.88;3.08;;;12.00;99.90;;;;;;6118093;23;20006;-84
2022/10/03 07:52:00;;;;;;;18.17;2.65;;;12.00;99.90;;;;;;6116979;23;20014;-85
2022/10/03 07:54:41;;;;;;;24.73;2.90;;;12.10;99.90;;;;;;6117811;23;20006;-86
2022/10/03 07:57:31;;;;;;;33.20;3.45;;;12.10;99.90;;;;;;6116016;23;20489;-84
2022/10/03 08:00:18;;;;;;;15.27;3.00;;;12.20;99.90;;;;;;6117786;23;20002;-84
2022/10/03 08:03:06;;;;;;;25.30;4.40;;;12.20;99.90;;;;;;6116187;23;20067;-83
2022/10/03 08:05:36;;;;;;;22.70;3.28;;;12.30;99.90;;;;;;6117328;23;20025;-84
2022/10/03 08:08:02;;;;;;;22.33;3.67;;;12.30;99.90;;;;;;6116320;23;20328;-84
2022/10/03 08:11:13;;;;;;;16.38;2.85;;;12.30;99.90;;;;;;6116714;23;20641;-85
2022/10/03 08:13:54;;;;;;;29.02;4.53;;;12.30;99.90;;;;;;6117675;23;20013;-84
2022/10/03 08:17:14;;;;;;;24.65;5.50;;;12.50;99.90;;;;;;6114274;23;20037;-85
2022/10/03 08:19:58;;;;;;;33.40;4.25;;;12.50;99.90;;;;;;6028051;23;20372;-85
2022/10/03 08:22:41;;;;;;;16.85;2.85;;;12.50;99.90;;;;;;6024658;23;20396;-85
2022/10/03 08:25:26;;;;;;;24.42;3.10;;;12.50;99.90;;;;;;6101084;23;20071;-84
2022/10/03 08:28:03;;;;;;;19.75;3.40;;;12.50;99.90;;;;;;6116836;23;19998;-86
2022/10/03 08:30:51;;;;;;;32.50;4.70;;;12.50;99.90;;;;;;6117546;23;20006;-84
2022/10/03 08:33:31;;;;;;;13.30;2.30;;;12.60;99.90;;;;;;6116221;23;20013;-85
2022/10/03 08:36:28;;;;;;;14.25;2.40;;;12.50;99.90;;;;;;6117252;23;20298;-85
2022/10/03 08:39:22;;;;;;;20.23;2.85;;;12.60;99.90;;;;;;6067934;23;20025;-84
2022/10/03 08:42:02;;;;;;;21.90;3.55;;;12.70;99.90;;;;;;6117153;23;20034;-87
2022/10/03 08:45:11;;;;;;;28.10;2.97;;;12.70;99.90;;;;;;6116473;23;20436;-84
2022/10/03 08:48:34;;;;;;;23.30;4.13;;;12.80;99.90;;;;;;6097489;23;19998;-84
2022/10/03 08:51:05;;;;;;;18.52;3.00;;;12.80;99.90;;;;;;6026530;23;20079;-84
2022/10/03 08:53:47;;;;;;;22.75;3.50;;;12.90;99.90;;;;;;6025049;23;20298;-84
2022/10/03 08:56:20;;;;;;;21.88;3.22;;;12.90;99.90;;;;;;6093041;23;20088;-85
2022/10/03 08:59:19;;;;;;;27.35;4.22;;;13.00;99.90;;;;;;6117667;23;20017;-85
2022/10/03 09:02:26;;;;;;;14.93;2.65;;;13.00;99.90;;;;;;6116843;23;20478;-84
2022/10/03 09:05:22;;;;;;;31.65;3.10;;;13.00;99.90;;;;;;6115490;23;20014;-84
2022/10/03 09:08:00;;;;;;;;;;;13.00;99.90;;;;;;6119013;23;20002;-86
2022/10/03 09:10:34;;;;;;;25.27;3.60;;;13.00;99.90;;;;;;6119134;23;19901;-84
2022/10/03 09:13:13;;;;;;;20.45;3.35;;;13.10;99.90;;;;;;6118052;23;20005;-84
2022/10/03 09:16:06;;;;;;;22.27;3.78;;;13.20;99.90;;;;;;6118569;23;20030;-84
2022/10/03 09:18:54;;;;;;;19.55;3.05;;;13.30;99.90;;;;;;6115662;23;20351;-84
2022/10/03 09:21:41;;;;;;;20.27;2.95;;;13.30;99.90;;;;;;6118383;23;20028;-86
2022/10/03 09:24:21;;;;;;;21.23;3.15;;;13.30;99.90;;;;;;6117537;23;20295;-85
2022/10/03 09:27:12;;;;;;;26.85;4.38;;;13.30;99.90;;;;;;6117686;23;20010;-83
2022/10/03 09:29:57;;;;;;;22.02;4.07;;;13.40;99.90;;;;;;6117295;23;20466;-83
2022/10/03 09:32:40;;;;;;;21.00;3.00;;;13.40;99.90;;;;;;6116665;23;20010;-84
2022/10/03 09:35:25;;;;;;;26.02;3.42;;;13.40;99.90;;;;;;6119045;23;20017;-82
2022/10/03 09:37:51;;;;;;;19.83;2.75;;;13.40;99.90;;;;;;6117654;23;20036;-83
2022/10/03 09:40:28;;;;;;;31.80;4.03;;;13.40;99.90;;;;;;6119126;23;20439;-84
2022/10/03 09:43:09;;;;;;;24.33;3.75;;;13.40;99.90;;;;;;6117564;23;20002;-85
2022/10/03 09:46:12;;;;;;;19.15;2.70;;;13.50;99.90;;;;;;6119146;23;20021;-85
2022/10/03 09:49:02;;;;;;;20.98;2.75;;;13.50;99.90;;;;;;6098309;23;20323;-82
2022/10/03 09:52:15;;;;;;;9.00;2.08;;;13.60;99.90;;;;;;6118099;23;20026;-84
2022/10/03 09:55:04;;;;;;;18.02;3.22;;;13.60;99.90;;;;;;6050632;23;20021;-85
2022/10/03 09:58:01;;;;;;;13.70;2.90;;;13.70;99.90;;;;;;6117334;23;20471;-83
2022/10/03 10:01:01;;;;;;;19.85;2.83;;;13.80;99.90;;;;;;6118745;23;20350;-83
2022/10/03 10:04:16;;;;;;;14.25;2.78;;;13.90;99.90;;;;;;6082623;23;20331;-84
2022/10/03 10:06:53;;;;;;;14.80;2.58;;;13.90;99.90;;;;;;6117662;23;20581;-84
2022/10/03 10:09:51;;;;;;;18.38;2.95;;;13.80;99.90;;;;;;6117326;23;20447;-84
2022/10/03 10:12:36;;;;;;;15.93;2.85;;;13.90;99.90;;;;;;6117445;23;20017;-85
2022/10/03 10:15:28;;;;;;;52.95;5.15;;;14.00;99.90;;;;;;6119023;23;20010;-83
2022/10/03 10:18:50;;;;;;;17.60;3.00;;;14.10;99.90;;;;;;6116704;22;20014;-84
2022/10/03 10:22:01;;;;;;;18.00;2.58;;;14.20;99.90;;;;;;6098777;23;20002;-84
2022/10/03 10:24:59;;;;;;;18.05;3.03;;;14.30;99.90;;;;;;6099359;23;20010;-87
2022/10/03 10:27:36;;;;;;;19.70;2.90;;;14.30;99.90;;;;;;6116825;23;20001;-84
2022/10/03 10:30:21;;;;;;;16.30;2.65;;;14.30;99.90;;;;;;6118433;23;20375;-85
2022/10/03 10:33:22;;;;;;;19.90;2.53;;;14.30;99.90;;;;;;6118103;23;20374;-84
2022/10/03 10:36:09;;;;;;;25.30;3.60;;;14.20;99.90;;;;;;6118223;23;20002;-84
2022/10/03 10:39:04;;;;;;;20.52;3.38;;;14.20;99.90;;;;;;6119052;23;20077;-84
2022/10/03 10:41:51;;;;;;;16.20;2.97;;;14.20;99.90;;;;;;6118873;23;20085;-83
2022/10/03 10:44:54;;;;;;;21.58;3.20;;;14.30;99.90;;;;;;6119024;23;19998;-83
2022/10/03 10:47:41;;;;;;;18.88;3.10;;;14.50;99.90;;;;;;6118320;23;20150;-86
2022/10/03 10:50:16;;;;;;;17.35;2.92;;;14.60;99.90;;;;;;6118431;23;20370;-85
2022/10/03 10:53:19;;;;;;;17.45;2.55;;;14.60;99.90;;;;;;6117655;23;20002;-85
2022/10/03 10:56:10;;;;;;;22.17;3.10;;;14.60;99.90;;;;;;6117994;23;20476;-84
2022/10/03 10:58:39;;;;;;;13.77;2.60;;;14.50;99.90;;;;;;6115879;23;20099;-84
2022/10/03 11:01:35;;;;;;;14.77;2.55;;;14.50;99.90;;;;;;6119141;23;20419;-84
2022/10/03 11:04:24;;;;;;;14.25;2.35;;;14.50;99.90;;;;;;6117705;23;20002;-84
2022/10/03 11:07:31;;;;;;;19.83;2.95;;;14.70;99.90;;;;;;6088219;23;20010;-85
2022/10/03 11:09:59;;;;;;;;;;;14.70;99.90;;;;;;6075696;23;20028;-83
2022/10/03 11:12:47;;;;;;;20.92;2.53;;;14.80;99.90;;;;;;6117142;23;19975;-83
2022/10/03 11:15:50;;;;;;;17.13;2.90;;;14.90;99.90;;;;;;6117991;23;20018;-84
2022/10/03 11:18:40;;;;;;;17.10;2.30;;;14.90;99.90;;;;;;6117732;22;20029;-85
2022/10/03 11:21:14;;;;;;;25.77;2.45;;;14.80;99.90;;;;;;6116865;23;20002;-87
2022/10/03 11:23:58;;;;;;;15.02;2.55;;;14.80;99.90;;;;;;6117212;23;20301;-85
2022/10/03 11:26:35;;;;;;;14.57;2.05;;;14.80;99.90;;;;;;6117783;23;20013;-86
2022/10/03 11:29:39;;;;;;;16.98;2.42;;;14.70;99.90;;;;;;6118038;23;20010;-85
2022/10/03 11:32:20;;;;;;;22.50;2.97;;;14.60;99.90;;;;;;6117876;23;20006;-84
2022/10/03 11:35:28;;;;;;;10.95;1.73;;;14.50;99.90;;;;;;6117961;23;20010;-84
2022/10/03 11:38:23;;;;;;;17.92;2.88;;;14.50;99.90;;;;;;6087730;23;20296;-84
2022/10/03 11:41:12;;;;;;;11.00;2.17;;;14.60;99.90;;;;;;6098992;23;20195;-84
2022/10/03 11:43:56;;;;;;;14.45;2.40;;;14.80;99.90;;;;;;6117338;23;20539;-84
2022/10/03 11:46:40;;;;;;;12.65;2.80;;;15.00;99.90;;;;;;6118365;23;20089;-85
2022/10/03 11:49:09;;;;;;;9.57;2.08;;;15.00;99.90;;;;;;6117291;23;20032;-84
2022/10/03 11:51:52;;;;;;;14.48;2.33;;;15.00;99.90;;;;;;6116025;23;20123;-83
2022/10/03 11:54:31;;;;;;;15.32;2.15;;;14.90;99.90;;;;;;6117357;23;20503;-85
2022/10/03 11:57:37;;;;;;;11.40;1.67;;;14.90;99.90;;;;;;6115205;23;20318;-81
2022/10/03 12:00:05;;;;;;;9.65;2.03;;;14.90;99.90;;;;;;6116029;23;20004;-84
2022/10/03 12:02:37;;;;;;;13.43;2.85;;;14.80;99.90;;;;;;6116473;23;19995;-84
2022/10/03 12:05:36;;;;;;;15.82;2.58;;;14.70;99.90;;;;;;6118977;23;20070;-85
2022/10/03 12:11:22;;;;;;;12.25;2.75;;;14.60;99.90;;;;;;6117659;23;20063;-84
2022/10/03 12:14:06;;;;;;;14.60;2.47;;;14.60;99.90;;;;;;6117926;23;20010;-86
2022/10/03 12:17:11;;;;;;;9.60;2.22;;;14.60;99.90;;;;;;6118025;23;20038;-84
2022/10/03 12:20:02;;;;;;;13.45;2.20;;;14.70;99.90;;;;;;6028503;23;20028;-83
2022/10/03 12:22:50;;;;;;;7.20;2.00;;;14.70;99.90;;;;;;6116235;23;20002;-83
2022/10/03 12:25:19;;;;;;;9.98;1.95;;;14.70;99.90;;;;;;6117807;23;20014;-84
2022/10/03 12:27:57;;;;;;;11.52;2.33;;;14.80;99.90;;;;;;6117183;23;20052;-83
2022/10/03 12:30:26;;;;;;;8.30;1.60;;;14.80;99.90;;;;;;6118366;23;20029;-84
2022/10/03 12:33:00;;;;;;;10.35;2.30;;;14.90;99.90;;;;;;6117694;23;20296;-83
2022/10/03 12:36:02;;;;;;;16.42;1.92;;;14.70;99.90;;;;;;6117876;23;20331;-85
2022/10/03 12:38:45;;;;;;;14.10;1.92;;;14.70;99.90;;;;;;6027425;23;20097;-84
2022/10/03 12:41:26;;;;;;;14.50;2.15;;;14.70;99.90;;;;;;6110908;23;20100;-83
2022/10/03 12:44:10;;;;;;;13.68;2.28;;;14.50;99.90;;;;;;6117917;23;20013;-84
2022/10/03 12:47:12;;;;;;;8.55;1.95;;;14.40;99.90;;;;;;6118799;23;20024;-84
2022/10/03 12:49:57;;;;;;;16.73;2.47;;;14.30;99.90;;;;;;6118683;23;20373;-84
2022/10/03 12:53:01;;;;;;;23.20;3.10;;;14.30;99.90;;;;;;6118337;23;20085;-84
2022/10/03 12:55:37;;;;;;;20.92;2.58;;;14.20;99.90;;;;;;6117356;23;20036;-84
2022/10/03 12:58:14;;;;;;;;;;;14.20;99.90;;;;;;6118841;23;20432;-83
2022/10/03 13:01:17;;;;;;;20.90;2.30;;;14.20;99.90;;;;;;6119164;23;19954;-84
2022/10/03 13:04:22;;;;;;;13.27;2.08;;;14.10;99.90;;;;;;6118219;23;20085;-84
2022/10/03 13:07:03;;;;;;;22.00;3.42;;;14.10;99.90;;;;;;6118708;23;20331;-84
2022/10/03 13:09:55;;;;;;;12.55;2.47;;;14.10;99.90;;;;;;6118197;23;20002;-84
2022/10/03 13:12:45;;;;;;;10.95;2.28;;;14.20;99.90;;;;;;6106386;23;20006;-84
2022/10/03 13:15:43;;;;;;;19.98;2.22;;;14.40;99.90;;;;;;6118848;23;20006;-84
2022/10/03 13:18:17;;;;;;;8.77;1.55;;;14.50;99.90;;;;;;6117756;22;20009;-84
2022/10/03 13:21:08;;;;;;;10.18;2.50;;;14.60;99.90;;;;;;6118745;23;20002;-83
2022/10/03 13:24:15;;;;;;;13.98;1.70;;;14.70;99.90;;;;;;6117943;23;20029;-83
2022/10/03 13:27:16;;;;;;;16.52;2.22;;;14.80;99.90;;;;;;6119103;23;20010;-83
2022/10/03 13:30:05;;;;;;;17.98;2.95;;;14.90;99.90;;;;;;6118824;23;19998;-85
2022/10/03 13:32:42;;;;;;;13.48;2.15;;;15.00;99.90;;;;;;6117926;23;20006;-84
2022/10/03 13:38:19;;;;;;;10.40;1.80;;;15.10;99.90;;;;;;6118217;23;20091;-84
2022/10/03 13:41:02;;;;;;;12.93;2.10;;;15.10;99.90;;;;;;6118399;23;20013;-83
2022/10/03 13:43:36;;;;;;;11.77;2.75;;;15.20;99.90;;;;;;6117786;23;20008;-84
2022/10/03 13:46:13;;;;;;;10.55;1.77;;;15.40;99.90;;;;;;6117485;23;20014;-91
2022/10/03 13:48:51;;;;;;;9.30;2.28;;;15.50;99.90;;;;;;6115960;23;20100;-84
2022/10/03 13:51:35;;;;;;;16.15;2.90;;;15.50;99.90;;;;;;6118287;23;20006;-85
2022/10/03 13:54:10;;;;;;;8.50;1.48;;;15.40;99.90;;;;;;6115594;23;20006;-85
2022/10/03 13:56:43;;;;;;;14.50;3.25;;;15.40;99.90;;;;;;6117010;23;20376;-85
2022/10/03 13:59:51;;;;;;;14.23;2.08;;;15.30;99.90;;;;;;6118018;23;20006;-84
2022/10/03 14:02:45;;;;;;;9.98;1.90;;;15.20;99.90;;;;;;6088385;23;20012;-83
2022/10/03 14:05:48;;;;;;;10.45;1.52;;;15.20;99.90;;;;;;6086014;23;20034;-85
2022/10/03 14:08:35;;;;;;;10.63;2.28;;;15.10;99.90;;;;;;6101498;23;20006;-84
2022/10/03 14:11:00;;;;;;;;;;;15.00;99.90;;;;;;6073568;23;20089;-85
2022/10/03 14:13:51;;;;;;;15.35;2.10;;;15.10;99.90;;;;;;6117805;23;19930;-84
2022/10/03 14:16:33;;;;;;;19.45;3.83;;;15.10;99.90;;;;;;6072378;23;20006;-84
2022/10/03 14:19:19;;;;;;;11.32;1.92;;;15.10;99.90;;;;;;6116200;22;20272;-85
2022/10/03 14:21:47;;;;;;;14.25;1.75;;;15.00;99.90;;;;;;6118381;23;20012;-83
2022/10/03 14:24:32;;;;;;;8.38;2.03;;;15.10;99.90;;;;;;6113836;23;20060;-85
2022/10/03 14:27:12;;;;;;;9.43;2.30;;;15.10;99.90;;;;;;6115693;23;20010;-83
2022/10/03 14:30:05;;;;;;;6.60;1.65;;;15.20;99.90;;;;;;6118099;23;20002;-84
2022/10/03 14:32:49;;;;;;;12.77;1.85;;;15.30;99.90;;;;;;6117600;23;19998;-84
2022/10/03 14:35:23;;;;;;;10.88;1.95;;;15.40;99.90;;;;;;6118732;23;20010;-86
2022/10/03 14:38:12;;;;;;;13.07;1.90;;;15.60;99.90;;;;;;6117513;23;20010;-85